Time;durP1;ratioP1;P1;durP2;ratioP2;P2;SDS_P1;SDS_P2;PMS_P1;PMS_P2;Temp;Humidity;BMP_temperature;BMP_pressure;BME280_temperature;BME280_humidity;BME280_pressure;Samples;Min_cycle;Max_cycle;Signal;HPM_P1;HPM_P2
2021/03/26 00:01:17;;;;;;;59.10;25.07;;;;;;;7.81;73.09;101528.13;5032673;28;20112;-77
2021/03/26 00:03:44;;;;;;;49.70;24.83;;;;;;;7.79;73.28;101535.38;5033274;28;20068;-77
2021/03/26 00:06:13;;;;;;;54.08;24.60;;;;;;;7.75;73.63;101533.09;5033219;28;20485;-76
2021/03/26 00:08:39;;;;;;;57.10;25.65;;;;;;;7.74;74.02;101532.25;5032880;28;20045;-78
2021/03/26 00:11:05;;;;;;;56.08;26.83;;;;;;;7.79;73.84;101534.53;5049001;28;20036;-78
2021/03/26 00:13:31;;;;;;;44.47;24.58;;;;;;;7.83;73.53;101533.31;5033297;28;20049;-78
2021/03/26 00:15:57;;;;;;;52.65;28.05;;;;;;;7.81;73.92;101532.59;5033223;28;20446;-79
2021/03/26 00:18:23;;;;;;;51.63;27.05;;;;;;;7.79;74.26;101534.53;5032637;28;20045;-64
2021/03/26 00:20:48;;;;;;;56.63;27.77;;;;;;;7.71;74.29;101534.34;5031844;28;20120;-64
2021/03/26 00:23:14;;;;;;;50.57;26.60;;;;;;;7.69;74.79;101539.75;5032605;28;20044;-64
2021/03/26 00:25:40;;;;;;;55.42;27.30;;;;;;;7.65;74.83;101538.31;5031593;28;20519;-64
2021/03/26 00:28:06;;;;;;;55.73;27.93;;;;;;;7.62;75.38;101538.56;5032371;28;20067;-64
2021/03/26 00:30:32;;;;;;;58.03;30.33;;;;;;;7.60;75.50;101538.69;5048190;28;20476;-64
2021/03/26 00:32:57;;;;;;;56.92;30.05;;;;;;;7.60;75.46;101546.66;5048217;28;20044;-64
2021/03/26 00:35:26;;;;;;;60.03;30.53;;;;;;;7.56;75.73;101539.91;5048017;28;20033;-64
2021/03/26 00:37:51;;;;;;;58.10;28.52;;;;;;;7.52;75.68;101543.78;5032026;28;20037;-65
2021/03/26 00:40:18;;;;;;;63.23;29.60;;;;;;;7.46;76.21;101538.94;5047980;28;20043;-64
2021/03/26 00:42:44;;;;;;;54.33;30.73;;;;;;;7.46;76.25;101538.94;5032187;28;20095;-64
2021/03/26 00:45:11;;;;;;;;;;;;;;;7.42;76.46;101536.66;5031727;28;20478;-64
2021/03/26 00:47:36;;;;;;;58.20;27.30;;;;;;;7.33;76.73;101540.91;5030831;28;19927;-64
2021/03/26 00:50:06;;;;;;;63.47;29.70;;;;;;;7.21;77.21;101533.91;5031349;28;20124;-78
2021/03/26 00:52:32;;;;;;;61.42;29.45;;;;;;;7.10;77.55;101534.75;5031346;28;20033;-77
2021/03/26 00:54:57;;;;;;;64.60;33.57;;;;;;;7.02;77.92;101529.19;5047287;28;20099;-78
2021/03/26 00:57:22;;;;;;;61.43;29.73;;;;;;;6.95;78.47;101532.34;5047552;28;20029;-77
2021/03/26 00:59:48;;;;;;;63.20;31.30;;;;;;;6.92;78.64;101534.38;5047841;28;20033;-78
2021/03/26 01:02:14;;;;;;;63.83;30.77;;;;;;;6.86;78.86;101534.84;5031289;28;20038;-78
2021/03/26 01:04:39;;;;;;;70.13;34.80;;;;;;;6.86;79.32;101533.06;5031169;28;20276;-78
2021/03/26 01:07:06;;;;;;;69.97;34.20;;;;;;;6.84;79.13;101537.63;5047572;28;20041;-77
2021/03/26 01:09:31;;;;;;;;;;;;;;;6.79;79.47;101533.63;5031128;28;20120;-78
2021/03/26 01:11:57;;;;;;;62.15;33.67;;;;;;;6.72;79.72;101539.44;5030957;28;20092;-77
2021/03/26 01:14:24;;;;;;;71.50;34.20;;;;;;;6.67;79.85;101535.41;5014743;28;20033;-78
2021/03/26 01:16:49;;;;;;;73.47;36.30;;;;;;;6.61;80.11;101531.44;5047684;28;20026;-77
2021/03/26 01:19:16;;;;;;;73.93;34.13;;;;;;;6.60;80.48;101534.22;5047412;28;20044;-77
2021/03/26 01:21:42;;;;;;;81.72;39.42;;;;;;;6.47;80.64;101534.31;5047664;28;20598;-78
2021/03/26 01:24:13;;;;;;;89.68;39.72;;;;;;;6.43;81.44;101533.69;5047597;28;20116;-77
2021/03/26 01:26:38;;;;;;;83.95;39.25;;;;;;;6.40;81.62;101533.91;5031823;28;20030;-78
2021/03/26 01:29:33;;;;;;;83.20;37.88;;;;;;;6.41;81.95;101527.63;5019794;28;20132;-78
2021/03/26 01:32:03;;;;;;;81.45;39.20;;;;;;;6.38;82.19;101529.69;5014968;28;20029;-77
2021/03/26 01:34:30;;;;;;;91.55;41.40;;;;;;;6.40;82.49;101527.78;5047419;28;20076;-77
2021/03/26 01:37:00;;;;;;;86.80;41.55;;;;;;;6.34;82.19;101529.94;5014992;28;20025;-77
2021/03/26 01:39:25;;;;;;;90.07;44.17;;;;;;;6.35;82.18;101528.13;5047300;28;20047;-78
2021/03/26 01:41:56;;;;;;;83.07;39.90;;;;;;;6.30;82.38;101538.25;5046341;28;20355;-64
2021/03/26 01:44:26;;;;;;;89.88;42.92;;;;;;;6.36;82.49;101531.63;5031247;28;20103;-64
2021/03/26 01:46:56;;;;;;;91.28;42.80;;;;;;;6.27;82.32;101528.69;5046273;28;20378;-64
2021/03/26 01:49:24;;;;;;;97.15;42.75;;;;;;;6.16;82.44;101526.03;5031117;28;20109;-64
2021/03/26 01:51:57;;;;;;;91.95;43.38;;;;;;;6.14;83.45;101525.28;5045767;28;20025;-64
2021/03/26 01:54:24;;;;;;;103.70;46.90;;;;;;;6.15;83.55;101519.00;5031244;28;20127;-64
2021/03/26 01:56:52;;;;;;;89.70;40.72;;;;;;;6.11;83.42;101517.53;5029976;28;20571;-64
2021/03/26 01:59:30;;;;;;;96.88;44.60;;;;;;;6.10;83.53;101515.84;5015302;28;20069;-65
2021/03/26 02:02:07;;;;;;;100.93;47.20;;;;;;;6.09;84.12;101519.47;5030229;28;20037;-65
2021/03/26 02:04:47;;;;;;;104.47;43.78;;;;;;;6.08;84.29;101515.13;5046689;28;20072;-64
2021/03/26 02:07:32;;;;;;;93.70;46.55;;;;;;;6.03;84.16;101511.97;5033156;28;20091;-65
2021/03/26 02:09:59;;;;;;;96.22;47.53;;;;;;;5.96;84.05;101513.38;5034314;28;20067;-65
2021/03/26 02:12:27;;;;;;;108.65;50.22;;;;;;;5.93;84.94;101512.63;5050803;28;20056;-65
2021/03/26 02:15:01;;;;;;;106.03;48.13;;;;;;;5.89;84.78;101507.66;5050789;28;20063;-65
2021/03/26 02:17:30;;;;;;;100.88;46.63;;;;;;;5.82;85.02;101517.88;5033861;28;20022;-65
2021/03/26 02:20:17;;;;;;;104.10;46.28;;;;;;;5.77;85.12;101522.66;5034123;28;20095;-65
2021/03/26 02:22:44;;;;;;;106.80;49.63;;;;;;;5.75;85.30;101521.94;5050613;28;20041;-64
2021/03/26 02:25:11;;;;;;;;;;;;;;;5.72;85.73;101517.69;5050902;28;20039;-65
2021/03/26 02:27:38;;;;;;;114.72;51.75;;;;;;;5.68;85.61;101524.16;5017135;28;20412;-65
2021/03/26 02:30:18;;;;;;;110.47;49.25;;;;;;;5.68;86.25;101523.34;5050300;28;20839;-64
2021/03/26 02:32:46;;;;;;;118.20;52.97;;;;;;;5.67;86.27;101513.72;5050376;28;20041;-64
2021/03/26 02:35:25;;;;;;;107.40;53.47;;;;;;;5.60;86.52;101520.41;5050294;28;20481;-64
2021/03/26 02:38:00;;;;;;;122.03;55.92;;;;;;;5.57;86.44;101518.84;5049307;28;20040;-65
2021/03/26 02:40:43;;;;;;;102.55;50.75;;;;;;;5.62;86.44;101522.00;5050239;28;20037;-65
2021/03/26 02:43:23;;;;;;;118.10;52.90;;;;;;;5.57;86.40;101515.31;5033722;28;20075;-64
2021/03/26 02:46:14;;;;;;;104.80;49.40;;;;;;;5.51;86.68;101524.56;5034473;28;20102;-65
2021/03/26 02:49:01;;;;;;;102.20;47.45;;;;;;;5.43;86.22;101517.19;5049806;28;20178;-65
2021/03/26 02:51:51;;;;;;;104.18;45.53;;;;;;;5.46;86.64;101522.25;5033499;28;20037;-64
2021/03/26 02:54:24;;;;;;;113.80;46.92;;;;;;;5.38;86.43;101524.56;5005453;28;20115;-65
2021/03/26 02:56:55;;;;;;;109.93;52.22;;;;;;;5.39;86.90;101521.00;5050113;28;20362;-65
2021/03/26 02:59:53;;;;;;;103.95;48.40;;;;;;;5.22;86.52;101524.84;5049583;28;20067;-64
2021/03/26 03:02:21;;;;;;;105.28;48.72;;;;;;;5.26;87.14;101528.94;5032355;28;20124;-64
2021/03/26 03:05:09;;;;;;;113.07;49.38;;;;;;;5.29;87.29;101525.22;5049770;28;20037;-65
2021/03/26 03:07:41;;;;;;;112.00;53.03;;;;;;;5.21;86.80;101522.31;5049310;28;20500;-64
2021/03/26 03:10:34;;;;;;;108.47;49.60;;;;;;;5.17;87.39;101516.38;5034058;28;20052;-64
2021/03/26 03:13:10;;;;;;;109.28;46.47;;;;;;;5.14;87.14;101521.03;5016674;28;20029;-64
2021/03/26 03:15:44;;;;;;;104.75;48.17;;;;;;;5.06;87.08;101524.25;5049675;28;20037;-64
2021/03/26 03:18:22;;;;;;;114.65;49.08;;;;;;;5.08;87.21;101517.03;5048276;28;20029;-64
2021/03/26 03:21:14;;;;;;;109.00;50.00;;;;;;;5.03;87.38;101520.00;5049393;28;20476;-64
2021/03/26 03:23:53;;;;;;;113.90;49.15;;;;;;;5.01;87.31;101521.03;5033920;28;20037;-64
2021/03/26 03:26:46;;;;;;;111.82;46.92;;;;;;;5.01;87.73;101516.63;5016955;28;20078;-64
2021/03/26 03:29:20;;;;;;;113.10;47.35;;;;;;;5.04;87.62;101519.03;5033504;28;20400;-65
2021/03/26 03:32:46;;;;;;;120.15;52.92;;;;;;;5.07;87.70;101515.34;5012250;28;20084;-64
2021/03/26 03:35:21;;;;;;;108.03;52.05;;;;;;;5.08;87.62;101517.88;5033597;28;20030;-64
2021/03/26 03:38:32;;;;;;;110.00;45.10;;;;;;;5.12;87.51;101512.34;5048894;28;20112;-64
2021/03/26 03:41:12;;;;;;;106.30;46.80;;;;;;;5.15;87.27;101513.00;5026306;28;20041;-64
2021/03/26 03:43:47;;;;;;;104.80;48.20;;;;;;;5.22;87.18;101514.25;5049067;28;20386;-64
2021/03/26 03:46:21;;;;;;;103.13;43.50;;;;;;;5.21;86.67;101506.41;5033413;28;20124;-64
2021/03/26 03:49:37;;;;;;;98.05;41.95;;;;;;;5.19;86.59;101508.31;5032879;28;20482;-65
2021/03/26 03:52:37;;;;;;;107.82;43.33;;;;;;;5.23;86.33;101505.34;5033298;28;20430;-65
2021/03/26 03:55:30;;;;;;;86.82;44.17;;;;;;;5.23;85.84;101501.84;5033280;28;20049;-64
2021/03/26 03:58:02;;;;;;;;;;;;;;;5.19;85.88;101510.97;5048996;28;20029;-64
2021/03/26 04:00:33;;;;;;;107.13;44.30;;;;;;;5.17;86.03;101512.88;5032257;28;19913;-64
2021/03/26 04:03:32;;;;;;;97.40;44.20;;;;;;;5.19;86.04;101500.38;5032204;28;20040;-64
2021/03/26 04:06:13;;;;;;;93.70;41.75;;;;;;;5.17;85.87;101500.47;5031856;28;20503;-64
2021/03/26 04:09:11;;;;;;;96.13;41.22;;;;;;;5.22;85.47;101508.09;5031815;28;20175;-64
2021/03/26 04:11:45;;;;;;;79.57;39.17;;;;;;;5.26;85.17;101509.56;5033587;28;20103;-64
2021/03/26 04:14:41;;;;;;;96.80;42.78;;;;;;;5.25;85.00;101497.31;5032039;28;20450;-64
2021/03/26 04:17:17;;;;;;;80.53;36.40;;;;;;;5.23;84.94;101501.84;5031822;28;20060;-64
2021/03/26 04:19:47;;;;;;;77.45;37.70;;;;;;;5.22;84.80;101497.50;5048179;28;20047;-64
2021/03/26 04:22:20;;;;;;;79.03;37.92;;;;;;;5.26;84.19;101505.13;5015371;28;20124;-65
2021/03/26 04:25:15;;;;;;;79.22;37.78;;;;;;;5.20;83.97;101496.78;5037266;28;20146;-64
2021/03/26 04:28:30;;;;;;;81.22;39.15;;;;;;;5.06;84.31;101495.13;5043266;28;20057;-64
2021/03/26 04:31:28;;;;;;;58.55;27.65;;;;;;;4.99;84.34;101489.41;5032391;28;20053;-64
2021/03/26 04:34:09;;;;;;;83.75;38.28;;;;;;;4.93;84.24;101497.78;5048196;28;20033;-64
2021/03/26 04:36:59;;;;;;;87.82;40.17;;;;;;;4.79;84.77;101482.03;5031490;28;20458;-64
2021/03/26 04:39:50;;;;;;;84.17;38.93;;;;;;;4.77;84.78;101494.50;5031248;28;20037;-64
2021/03/26 04:42:26;;;;;;;84.13;39.53;;;;;;;4.76;84.81;101491.00;5015126;28;20465;-65
2021/03/26 04:45:01;;;;;;;93.75;39.90;;;;;;;4.72;84.61;101489.53;5031471;28;20463;-64
2021/03/26 04:47:52;;;;;;;86.50;39.85;;;;;;;4.70;84.91;101485.31;5030803;28;20370;-64
2021/03/26 04:50:40;;;;;;;91.47;39.30;;;;;;;4.64;85.07;101489.22;5046642;28;20057;-65
2021/03/26 04:53:19;;;;;;;87.30;39.70;;;;;;;4.63;85.57;101496.28;5047783;28;20029;-64
2021/03/26 04:55:52;;;;;;;85.00;41.88;;;;;;;4.63;85.57;101491.00;5047572;28;20060;-64
2021/03/26 04:58:40;;;;;;;96.68;41.80;;;;;;;4.57;85.74;101487.97;5031013;28;20103;-64
2021/03/26 05:01:26;;;;;;;90.38;40.38;;;;;;;4.52;86.13;101488.28;5031240;28;20048;-64
2021/03/26 05:04:09;;;;;;;93.90;43.38;;;;;;;4.52;85.99;101493.56;5015560;28;20037;-64
2021/03/26 05:06:39;;;;;;;;;;;;;;;4.61;85.82;101492.94;5047776;28;20041;-64
2021/03/26 05:09:13;;;;;;;100.18;44.65;;;;;;;4.54;85.88;101489.03;5030625;28;20008;-64
2021/03/26 05:11:45;;;;;;;86.40;40.38;;;;;;;4.66;85.61;101495.25;5031892;28;20052;-64
2021/03/26 05:14:22;;;;;;;90.80;41.95;;;;;;;4.68;85.14;101488.03;5047397;28;20120;-64
2021/03/26 05:17:06;;;;;;;91.22;41.33;;;;;;;4.68;85.22;101488.03;5030710;28;20463;-64
2021/03/26 05:19:58;;;;;;;94.72;44.15;;;;;;;4.68;84.93;101481.91;5031589;28;20085;-64
2021/03/26 05:22:41;;;;;;;93.07;42.83;;;;;;;4.72;84.77;101488.69;5047342;28;20049;-64
2021/03/26 05:25:34;;;;;;;90.95;40.72;;;;;;;4.74;84.61;101486.78;5031633;28;20060;-64
2021/03/26 05:28:24;;;;;;;85.47;37.53;;;;;;;4.82;84.63;101489.72;5030132;28;20095;-64
2021/03/26 05:31:23;;;;;;;86.00;40.25;;;;;;;4.82;84.44;101480.03;5047084;28;20087;-64
2021/03/26 05:33:54;;;;;;;92.95;39.97;;;;;;;4.85;84.46;101484.25;5030406;28;20091;-64
2021/03/26 05:36:34;;;;;;;88.25;39.75;;;;;;;4.91;84.47;101504.13;5030490;28;20033;-64
2021/03/26 05:39:24;;;;;;;91.40;40.63;;;;;;;4.94;84.08;101494.19;5031113;28;20060;-64
2021/03/26 05:42:28;;;;;;;79.05;37.47;;;;;;;4.91;83.95;101497.03;5044368;28;20178;-64
2021/03/26 05:45:26;;;;;;;85.95;38.97;;;;;;;4.96;83.90;101486.97;5031217;28;20426;-64
2021/03/26 05:48:34;;;;;;;95.25;43.13;;;;;;;4.95;84.05;101485.28;5002586;28;20280;-64
2021/03/26 05:51:36;;;;;;;86.03;37.00;;;;;;;5.02;83.53;101486.53;5030376;28;20037;-64
2021/03/26 05:54:14;;;;;;;;;;;;;;;5.11;83.41;101481.56;5047389;28;20033;-64
2021/03/26 05:57:16;;;;;;;82.40;38.67;;;;;;;5.11;83.33;101485.06;5030223;28;19920;-64
2021/03/26 06:00:01;;;;;;;87.65;37.40;;;;;;;5.13;83.20;101479.63;5014122;28;20029;-79
2021/03/26 06:03:08;;;;;;;88.20;40.50;;;;;;;5.22;82.90;101489.56;5045376;28;20042;-78
2021/03/26 06:06:11;;;;;;;75.85;34.72;;;;;;;5.34;82.28;101487.84;5031586;28;20056;-79
2021/03/26 06:09:15;;;;;;;69.50;34.23;;;;;;;5.35;82.42;101482.44;5019904;28;20045;-79
2021/03/26 06:12:17;;;;;;;78.97;37.72;;;;;;;5.93;80.56;101479.97;5031650;28;20057;-78
2021/03/26 06:15:38;;;;;;;81.22;36.42;;;;;;;6.32;78.38;101473.50;5031422;28;20433;-79
2021/03/26 06:18:41;;;;;;;79.32;37.22;;;;;;;6.63;77.41;101468.50;5030305;28;20053;-79
2021/03/26 06:21:46;;;;;;;75.57;34.42;;;;;;;6.97;75.67;101473.78;5031216;28;20128;-80
2021/03/26 06:24:43;;;;;;;74.63;34.08;;;;;;;7.03;75.99;101470.66;5030350;28;20046;-80
2021/03/26 06:27:33;;;;;;;62.38;32.25;;;;;;;7.43;73.69;101463.97;5046730;28;20542;-79
2021/03/26 06:30:07;;;;;;;68.43;34.33;;;;;;;7.57;72.45;101467.19;5046830;28;20057;-79
2021/03/26 06:33:16;;;;;;;66.30;32.72;;;;;;;7.11;74.73;101470.88;5046804;28;20037;-79
2021/03/26 06:35:55;;;;;;;68.00;32.17;;;;;;;7.35;74.64;101459.25;5030329;28;20042;-79
2021/03/26 06:38:45;;;;;;;70.35;35.72;;;;;;;6.91;75.19;101466.34;5013475;28;20036;-79
2021/03/26 06:41:35;;;;;;;70.80;35.33;;;;;;;7.26;74.12;101462.66;5046803;28;20041;-79
2021/03/26 06:44:17;;;;;;;75.15;34.45;;;;;;;7.54;73.08;101471.94;5046587;28;20128;-78
2021/03/26 06:47:11;;;;;;;60.75;33.05;;;;;;;7.39;74.00;101464.19;5030973;28;20451;-78
2021/03/26 06:50:17;;;;;;;68.05;34.05;;;;;;;7.73;74.11;101466.78;5046345;28;20347;-79
2021/03/26 06:53:17;;;;;;;62.28;30.85;;;;;;;7.94;74.77;101466.81;5030043;28;20120;-79
2021/03/26 06:55:48;;;;;;;74.10;34.55;;;;;;;8.25;72.34;101462.41;5033584;28;20045;-80
2021/03/26 06:58:48;;;;;;;64.10;34.00;;;;;;;7.82;72.56;101462.53;5034411;28;20037;-78
2021/03/26 07:01:48;;;;;;;70.97;33.78;;;;;;;7.51;74.46;101464.19;5033737;28;20339;-77
2021/03/26 07:04:40;;;;;;;75.03;34.42;;;;;;;7.85;73.70;101464.91;5034484;28;20041;-78
2021/03/26 07:07:43;;;;;;;62.22;29.45;;;;;;;7.70;73.64;101458.19;5033536;28;20036;-79
2021/03/26 07:10:36;;;;;;;56.95;29.65;;;;;;;7.90;73.42;101457.41;5033441;28;20067;-79
2021/03/26 07:13:26;;;;;;;64.28;34.13;;;;;;;7.89;74.25;101460.19;5034200;28;20110;-79
2021/03/26 07:16:07;;;;;;;69.70;33.60;;;;;;;8.14;74.18;101459.81;5034194;28;20057;-79
2021/03/26 07:18:55;;;;;;;63.95;32.65;;;;;;;8.50;72.58;101464.81;5016452;28;20030;-78
2021/03/26 07:21:40;;;;;;;67.35;33.22;;;;;;;8.65;72.87;101466.19;5049770;28;20150;-78
2021/03/26 07:24:34;;;;;;;60.65;32.20;;;;;;;8.31;73.19;101466.38;5049610;28;20110;-79
2021/03/26 07:27:13;;;;;;;66.68;33.85;;;;;;;8.41;73.48;101463.81;5033818;28;20053;-79
2021/03/26 07:30:12;;;;;;;69.35;34.83;;;;;;;8.56;72.83;101464.31;5033764;28;20142;-79
2021/03/26 07:33:16;;;;;;;67.97;32.60;;;;;;;8.27;73.73;101464.13;5033778;28;20047;-79
2021/03/26 07:35:59;;;;;;;71.00;36.97;;;;;;;8.34;73.50;101474.09;5033194;28;20042;-80
2021/03/26 07:38:50;;;;;;;63.72;33.78;;;;;;;8.38;74.19;101472.88;5032586;28;20064;-80
2021/03/26 07:41:37;;;;;;;72.28;32.97;;;;;;;8.31;73.79;101466.38;5033680;28;20025;-81
2021/03/26 07:44:35;;;;;;;67.75;35.38;;;;;;;8.17;75.16;101464.03;5033299;28;20077;-79
2021/03/26 07:47:49;;;;;;;70.82;36.45;;;;;;;8.03;75.52;101462.56;5003115;28;20412;-79
2021/03/26 07:50:25;;;;;;;63.30;32.58;;;;;;;8.64;74.38;101460.03;4972011;28;20439;-79
2021/03/26 07:53:03;;;;;;;61.70;33.38;;;;;;;8.83;73.05;101456.59;5021822;28;20049;-79
2021/03/26 07:56:01;;;;;;;64.00;34.63;;;;;;;9.00;73.58;101467.59;5032439;28;20048;-79
2021/03/26 07:58:44;;;;;;;64.05;34.53;;;;;;;9.57;71.33;101470.53;5032086;28;20442;-78
2021/03/26 08:01:54;;;;;;;62.88;32.90;;;;;;;9.24;72.36;101460.09;5032438;28;20048;-78
2021/03/26 08:04:29;;;;;;;61.38;31.98;;;;;;;10.08;69.61;101461.44;5023545;28;20512;-79
2021/03/26 08:07:22;;;;;;;61.15;32.42;;;;;;;10.01;68.74;101461.16;5033175;28;20470;-78
2021/03/26 08:10:21;;;;;;;65.22;34.00;;;;;;;9.94;70.32;101462.72;5048419;28;20037;-79
2021/03/26 08:13:24;;;;;;;63.60;32.45;;;;;;;10.41;68.49;101460.16;5031869;28;20072;-78
2021/03/26 08:16:05;;;;;;;65.93;33.03;;;;;;;10.86;67.47;101459.44;5032043;28;20041;-79
2021/03/26 08:18:40;;;;;;;62.42;31.63;;;;;;;10.58;67.55;101461.22;5047764;28;20034;-78
2021/03/26 08:21:30;;;;;;;66.82;33.83;;;;;;;10.62;67.51;101456.44;5031458;28;20037;-78
2021/03/26 08:24:09;;;;;;;56.53;32.47;;;;;;;11.34;65.64;101455.69;5031369;28;20102;-78
2021/03/26 08:26:51;;;;;;;56.33;31.23;;;;;;;11.11;66.30;101451.75;5031351;28;20045;-79
2021/03/26 08:29:25;;;;;;;56.00;31.55;;;;;;;11.68;64.06;101455.03;5046880;28;20413;-78
2021/03/26 08:32:05;;;;;;;56.55;31.35;;;;;;;11.74;63.58;101443.72;5030517;28;20048;-79
2021/03/26 08:34:55;;;;;;;54.95;30.90;;;;;;;11.68;64.01;101459.53;5031924;28;20041;-65
2021/03/26 08:37:47;;;;;;;60.05;33.55;;;;;;;11.77;64.24;101453.28;5048109;28;20061;-65
2021/03/26 08:40:21;;;;;;;53.80;31.38;;;;;;;11.71;63.58;101449.38;5031428;28;20351;-65
2021/03/26 08:42:50;;;;;;;58.45;30.88;;;;;;;11.54;63.47;101453.75;5031489;28;20102;-65
2021/03/26 08:45:28;;;;;;;53.60;31.23;;;;;;;12.16;63.02;101450.31;5031344;28;20049;-65
2021/03/26 08:48:21;;;;;;;57.00;31.15;;;;;;;11.97;62.80;101459.34;5031924;28;20187;-65
2021/03/26 08:51:10;;;;;;;60.38;34.38;;;;;;;11.84;63.09;101455.19;5047925;28;20029;-65
2021/03/26 08:53:48;;;;;;;49.55;30.83;;;;;;;12.48;60.66;101452.38;5032091;28;20046;-65
2021/03/26 08:56:42;;;;;;;48.15;29.23;;;;;;;12.58;61.07;101445.06;5047740;28;20103;-65
2021/03/26 08:59:36;;;;;;;45.80;27.30;;;;;;;12.60;59.95;101442.22;5030880;28;20049;-65
2021/03/26 09:02:26;;;;;;;48.13;28.70;;;;;;;12.70;59.66;101447.47;5032010;28;20044;-65
2021/03/26 09:05:16;;;;;;;50.97;27.63;;;;;;;13.11;57.96;101453.88;5031097;28;20056;-65
2021/03/26 09:08:02;;;;;;;50.40;29.77;;;;;;;13.07;57.84;101457.88;5030599;28;20048;-65
2021/03/26 09:11:06;;;;;;;46.90;26.67;;;;;;;13.24;56.55;101451.53;5031732;28;20438;-65
2021/03/26 09:14:00;;;;;;;46.83;28.63;;;;;;;12.79;57.69;101451.88;5047403;28;20041;-65
2021/03/26 09:16:28;;;;;;;54.92;28.60;;;;;;;13.12;56.54;101454.69;5029894;28;20418;-65
2021/03/26 09:19:07;;;;;;;44.28;25.83;;;;;;;13.72;54.45;101443.81;5031367;28;20040;-66
2021/03/26 09:21:51;;;;;;;48.72;28.42;;;;;;;13.51;55.47;101450.50;5031695;28;20033;-65
2021/03/26 09:24:35;;;;;;;49.42;26.90;;;;;;;13.50;53.58;101447.97;5031623;28;20037;-65
2021/03/26 09:27:44;;;;;;;41.92;26.65;;;;;;;12.73;54.56;101445.28;5013872;28;20044;-65
2021/03/26 09:30:15;;;;;;;40.47;24.40;;;;;;;12.54;54.68;101457.06;5047300;28;20033;-65
2021/03/26 09:32:49;;;;;;;41.42;27.00;;;;;;;12.33;54.80;101453.94;5046401;28;20454;-65
2021/03/26 09:35:23;;;;;;;55.75;24.77;;;;;;;13.34;53.30;101443.38;5046407;28;20045;-65
2021/03/26 09:37:53;;;;;;;45.90;24.98;;;;;;;13.17;53.82;101447.84;5031057;28;20038;-65
2021/03/26 09:40:39;;;;;;;46.72;25.20;;;;;;;13.24;53.23;101442.66;5030572;28;20052;-65
2021/03/26 09:43:04;;;;;;;;;;;;;;;13.04;54.06;101440.28;5031889;28;20052;-65
2021/03/26 09:45:34;;;;;;;;;;;;;;;13.58;52.59;101439.94;5030806;28;19917;-65
2021/03/26 09:48:08;;;;;;;36.78;21.10;;;;;;;14.06;51.62;101432.06;5031077;28;19928;-65
2021/03/26 09:50:56;;;;;;;35.45;22.67;;;;;;;14.12;51.02;101434.09;5031314;28;20037;-65
2021/03/26 09:53:22;;;;;;;38.25;22.80;;;;;;;14.06;49.45;101432.06;5031283;28;20044;-65
2021/03/26 09:55:47;;;;;;;39.80;22.45;;;;;;;13.84;49.89;101428.22;5030804;28;20128;-66
2021/03/26 09:58:39;;;;;;;35.27;20.70;;;;;;;13.57;51.04;101440.09;5030400;28;20033;-65
2021/03/26 10:01:20;;;;;;;39.22;21.02;;;;;;;13.86;49.69;101432.41;5031266;28;20045;-66
2021/03/26 10:03:52;;;;;;;38.05;21.00;;;;;;;14.51;49.10;101430.66;5030062;28;20358;-66
2021/03/26 10:06:39;;;;;;;37.63;19.98;;;;;;;15.27;48.09;101420.31;5031147;28;20370;-65
2021/03/26 10:09:36;;;;;;;29.27;17.67;;;;;;;16.28;44.52;101430.00;5046401;28;20052;-66
2021/03/26 10:12:20;;;;;;;32.28;19.38;;;;;;;15.06;45.31;101424.47;5031100;28;20037;-66
2021/03/26 10:15:01;;;;;;;28.70;18.23;;;;;;;15.17;45.24;101421.38;5030804;28;20133;-66
2021/03/26 10:17:40;;;;;;;30.70;18.23;;;;;;;14.73;46.60;101418.38;5046570;28;20026;-66
2021/03/26 10:20:27;;;;;;;26.00;15.77;;;;;;;14.54;46.42;101419.63;5030928;28;20073;-66
2021/03/26 10:23:05;;;;;;;30.98;16.70;;;;;;;13.33;48.87;101420.28;5046527;28;20481;-66
2021/03/26 10:25:34;;;;;;;27.77;17.02;;;;;;;13.13;49.68;101421.50;5029759;28;20091;-65
2021/03/26 10:28:31;;;;;;;26.90;15.48;;;;;;;13.92;48.44;101410.25;5031885;28;20037;-66
2021/03/26 10:31:16;;;;;;;26.08;15.30;;;;;;;13.37;49.45;101410.03;5018244;28;20506;-65
2021/03/26 10:33:48;;;;;;;25.50;14.30;;;;;;;12.88;50.50;101413.41;5034627;28;20478;-66
2021/03/26 10:36:37;;;;;;;27.15;14.25;;;;;;;12.49;51.54;101405.84;5034558;28;20486;-66
2021/03/26 10:39:08;;;;;;;25.33;14.77;;;;;;;12.83;50.57;101407.66;5050061;28;20073;-66
2021/03/26 10:41:54;;;;;;;29.83;13.57;;;;;;;12.51;50.20;101406.53;5034454;28;20538;-66
2021/03/26 10:44:43;;;;;;;21.98;12.90;;;;;;;13.23;48.88;101398.94;5050401;28;20044;-66
2021/03/26 10:47:28;;;;;;;23.17;12.70;;;;;;;13.06;48.31;101398.06;5049957;28;20485;-66
2021/03/26 10:50:00;;;;;;;;;;;;;;;12.77;49.68;101394.94;5033970;28;20102;-66
2021/03/26 10:52:44;;;;;;;26.00;12.68;;;;;;;12.78;49.43;101399.25;5034163;28;19935;-66
2021/03/26 10:55:12;;;;;;;21.25;12.45;;;;;;;13.72;48.68;101399.03;5034948;28;20045;-78
2021/03/26 10:57:43;;;;;;;19.95;10.57;;;;;;;14.91;44.54;101384.03;5034334;28;20116;-79
2021/03/26 11:00:22;;;;;;;16.27;9.82;;;;;;;15.69;42.73;101382.19;5034565;28;20049;-79
2021/03/26 11:02:58;;;;;;;16.05;10.48;;;;;;;15.32;42.09;101381.09;5033376;28;20060;-80
2021/03/26 11:05:46;;;;;;;16.77;10.88;;;;;;;14.25;43.84;101380.69;5050268;28;20434;-80
2021/03/26 11:08:18;;;;;;;16.90;10.35;;;;;;;14.12;44.13;101375.03;5034429;28;20053;-80
2021/03/26 11:10:52;;;;;;;15.45;10.18;;;;;;;14.04;44.32;101375.84;5034509;28;20094;-79
2021/03/26 11:13:42;;;;;;;17.83;10.38;;;;;;;13.48;44.52;101370.31;5033177;28;20037;-82
2021/03/26 11:16:24;;;;;;;15.07;8.25;;;;;;;13.83;44.26;101381.75;5033293;28;20033;-78
2021/03/26 11:19:05;;;;;;;11.13;6.40;;;;;;;14.99;41.82;101364.31;5033824;28;20041;-81
2021/03/26 11:21:43;;;;;;;10.00;6.43;;;;;;;13.99;42.65;101366.63;5033671;28;20435;-78
2021/03/26 11:24:10;;;;;;;9.70;5.28;;;;;;;13.73;44.04;101370.34;5034073;28;20091;-79
2021/03/26 11:27:01;;;;;;;10.40;5.93;;;;;;;13.50;43.96;101367.47;5048106;28;20416;-78
2021/03/26 11:29:39;;;;;;;11.38;6.25;;;;;;;13.44;44.17;101360.97;5032691;28;20034;-77
2021/03/26 11:32:24;;;;;;;10.30;6.60;;;;;;;13.06;44.62;101367.72;5049479;28;20159;-80
2021/03/26 11:35:16;;;;;;;14.63;7.47;;;;;;;12.95;46.01;101365.34;5032940;28;20088;-77
2021/03/26 11:37:51;;;;;;;10.45;6.13;;;;;;;13.15;44.84;101352.50;5033462;28;20038;-78
2021/03/26 11:40:17;;;;;;;11.85;6.43;;;;;;;13.04;44.49;101357.16;5031062;28;20034;-78
2021/03/26 11:42:52;;;;;;;8.53;4.70;;;;;;;13.17;44.34;101350.47;5031074;28;20382;-77
2021/03/26 11:45:29;;;;;;;12.52;7.15;;;;;;;13.22;44.20;101346.28;5031123;28;20029;-77
2021/03/26 11:48:37;;;;;;;11.88;6.63;;;;;;;12.71;45.33;101355.38;5030758;28;20049;-78
2021/03/26 11:51:28;;;;;;;9.23;5.00;;;;;;;12.82;44.82;101355.09;5047779;28;20447;-78
2021/03/26 11:54:18;;;;;;;7.53;5.28;;;;;;;12.68;44.62;101352.00;5032258;28;20537;-77
2021/03/26 11:57:03;;;;;;;8.02;5.32;;;;;;;13.04;44.83;101341.09;5032068;28;20032;-78
2021/03/26 11:59:46;;;;;;;11.73;4.90;;;;;;;12.82;44.80;101344.38;5032144;28;20038;-78
2021/03/26 12:02:22;;;;;;;15.30;6.07;;;;;;;12.80;44.89;101343.69;5032378;28;20037;-77
2021/03/26 12:04:54;;;;;;;8.65;5.03;;;;;;;12.87;44.77;101342.03;5032315;28;20116;-77
2021/03/26 12:07:27;;;;;;;8.40;4.68;;;;;;;12.82;44.23;101342.50;5048648;28;20191;-77
2021/03/26 12:10:03;;;;;;;7.65;4.40;;;;;;;12.91;44.81;101339.88;5032912;28;20052;-77
2021/03/26 12:12:44;;;;;;;9.70;5.15;;;;;;;12.78;44.96;101335.81;5032116;28;20025;-77
2021/03/26 12:15:28;;;;;;;9.95;5.80;;;;;;;13.05;44.96;101331.19;5033108;28;20092;-78
2021/03/26 12:18:04;;;;;;;8.95;4.63;;;;;;;12.88;44.83;101331.16;5031634;28;20029;-78
2021/03/26 12:20:31;;;;;;;;;;;;;;;13.09;44.66;101325.34;5032371;28;20037;-77
2021/03/26 12:23:01;;;;;;;9.40;4.75;;;;;;;13.66;44.00;101326.41;5032865;28;19970;-77